Weather at Sakon Nakhon Airport

Public forecast

Using degrees Celsius for public forecast. Weather courtesy of forecast.io.

Current aviation weather report (METAR) for Sakon Nakhon Airport

Report is more than 6 hours old.

Retrieved 2021/06/15 12:00 UTC (9 hours ago):

VTUI 151200Z 24005KT 9999 BKN040 31/23 Q1003 NOSIG

Aviation forecast (TAF) for Sakon Nakhon Airport

Retrieved 2021/06/15 18:36 UTC (2 hours ago):

TAF VTUI 151700Z 1518/1618 24005KT 9000 SCT030 TEMPO 1607/1613 VRB15KT 4000 TSRA FEW018CB BKN020 BKN080